createdAt,value
2019-03-02T00:00:24.819Z,36.67
2019-03-02T00:02:53.352Z,34.03
2019-03-02T00:05:24.337Z,34.73
2019-03-02T00:07:51.989Z,34.23
2019-03-02T00:10:20.479Z,33.93
2019-03-02T00:12:48.935Z,33.60
2019-03-02T00:15:17.397Z,33.20
2019-03-02T00:17:45.855Z,32.03
2019-03-02T00:20:14.838Z,31.57
2019-03-02T00:22:44.980Z,31.73
2019-03-02T00:25:13.579Z,33.23
2019-03-02T00:27:42.003Z,33.23
2019-03-02T00:30:17.636Z,35.00
2019-03-02T00:32:45.079Z,34.33
2019-03-02T00:35:14.402Z,34.50
2019-03-02T00:37:42.873Z,34.23
2019-03-02T00:40:11.782Z,34.93
2019-03-02T00:42:40.220Z,35.40
2019-03-02T00:45:14.264Z,34.30
2019-03-02T00:47:41.871Z,35.47
2019-03-02T00:50:11.742Z,34.83
2019-03-02T00:52:40.268Z,34.30
2019-03-02T00:55:09.176Z,34.67
2019-03-02T00:57:37.714Z,34.03
2019-03-02T01:00:11.695Z,35.00
2019-03-02T01:02:40.509Z,33.53
2019-03-02T01:05:09.612Z,33.43
2019-03-02T01:07:38.154Z,33.33
2019-03-02T01:10:09.823Z,32.87
2019-03-02T01:12:40.336Z,34.27
2019-03-02T01:15:14.295Z,34.30
2019-03-02T01:17:43.177Z,34.83
2019-03-02T01:20:13.379Z,34.90
2019-03-02T01:22:42.382Z,36.23
2019-03-02T01:25:14.412Z,36.33
2019-03-02T01:27:43.358Z,35.10
2019-03-02T01:30:17.442Z,36.33
2019-03-02T01:32:48.840Z,36.57
2019-03-02T01:35:16.517Z,37.43
2019-03-02T01:37:46.454Z,36.23
2019-03-02T01:40:15.929Z,37.80
2019-03-02T01:42:44.796Z,35.50
2019-03-02T01:45:15.302Z,37.77
2019-03-02T01:47:43.825Z,36.83
2019-03-02T01:50:16.988Z,34.63
2019-03-02T01:52:45.709Z,34.23
2019-03-02T01:55:16.789Z,35.70
2019-03-02T01:57:48.706Z,35.00
2019-03-02T02:00:25.473Z,33.27
2019-03-02T02:02:54.027Z,31.70
2019-03-02T02:05:22.546Z,32.47
2019-03-02T02:07:54.266Z,33.33
2019-03-02T02:10:22.104Z,34.60
2019-03-02T02:12:53.240Z,32.40
2019-03-02T02:15:26.035Z,32.30
2019-03-02T02:17:54.441Z,32.33
2019-03-02T02:20:23.065Z,33.77
2019-03-02T02:22:51.535Z,32.53
2019-03-02T02:25:20.943Z,32.50
2019-03-02T02:27:49.432Z,32.63
2019-03-02T02:30:26.261Z,31.97
2019-03-02T02:33:03.216Z,32.67
2019-03-02T02:35:25.018Z,32.73
2019-03-02T02:37:53.557Z,31.47
2019-03-02T02:40:22.165Z,31.40
2019-03-02T02:42:50.660Z,31.97
2019-03-02T02:45:21.105Z,31.13
2019-03-02T02:47:51.877Z,32.43
2019-03-02T02:50:28.331Z,33.13
2019-03-02T02:52:51.036Z,33.03
2019-03-02T02:55:19.575Z,30.97
2019-03-02T02:57:48.124Z,29.63
2019-03-02T03:00:24.944Z,31.80
2019-03-02T03:02:53.538Z,31.57
2019-03-02T03:05:22.073Z,32.43
2019-03-02T03:07:53.813Z,32.30
2019-03-02T03:10:29.860Z,32.93
2019-03-02T03:13:02.225Z,32.90
2019-03-02T03:15:36.951Z,33.83
2019-03-02T03:18:07.253Z,32.50
2019-03-02T03:20:34.254Z,32.03
2019-03-02T03:23:02.714Z,32.53
2019-03-02T03:25:31.265Z,35.03
2019-03-02T03:27:59.715Z,33.90
2019-03-02T03:30:35.753Z,32.93
2019-03-02T03:32:59.812Z,32.47
2019-03-02T03:35:28.903Z,34.27
2019-03-02T03:37:57.438Z,32.53
2019-03-02T03:40:27.179Z,32.37
2019-03-02T03:43:02.452Z,33.17
2019-03-02T03:45:28.177Z,32.80
2019-03-02T03:47:56.292Z,34.77
2019-03-02T03:50:24.818Z,33.87
2019-03-02T03:52:53.277Z,35.43
2019-03-02T03:55:25.077Z,36.33
2019-03-02T03:57:55.389Z,35.57
2019-03-02T04:00:22.173Z,36.93
2019-03-02T04:02:50.648Z,35.10
2019-03-02T04:05:19.319Z,36.17
2019-03-02T04:07:49.827Z,36.40
2019-03-02T04:10:24.950Z,36.60
2019-03-02T04:12:48.229Z,35.87
2019-03-02T04:15:16.735Z,35.70
2019-03-02T04:17:45.221Z,35.87
2019-03-02T04:20:34.809Z,35.50
2019-03-02T04:23:06.675Z,34.87
2019-03-02T04:25:35.129Z,36.70
2019-03-02T04:28:03.678Z,36.33
2019-03-02T04:30:32.870Z,35.47
2019-03-02T04:33:05.545Z,33.23
2019-03-02T04:35:33.778Z,35.83
2019-03-02T04:38:02.292Z,34.43
2019-03-02T04:40:30.990Z,35.27
2019-03-02T04:42:59.906Z,36.27
2019-03-02T04:45:28.375Z,35.23
2019-03-02T04:47:59.942Z,34.43
2019-03-02T04:50:28.393Z,34.57
2019-03-02T04:52:56.984Z,36.10
2019-03-02T04:55:25.598Z,35.83
2019-03-02T04:57:54.137Z,33.77
2019-03-02T05:00:22.595Z,35.33
2019-03-02T05:02:51.704Z,34.27
2019-03-02T05:05:21.265Z,36.30
2019-03-02T05:07:49.720Z,35.97
2019-03-02T05:10:18.234Z,33.80
2019-03-02T05:12:49.814Z,36.63
2019-03-02T05:15:17.732Z,34.27
2019-03-02T05:17:46.276Z,35.80
2019-03-02T05:20:15.096Z,35.77
2019-03-02T05:22:43.562Z,35.67
2019-03-02T05:25:19.091Z,36.17
2019-03-02T05:27:47.988Z,34.80
2019-03-02T05:30:17.487Z,32.73
2019-03-02T05:32:47.669Z,33.53
2019-03-02T05:35:16.826Z,33.90
2019-03-02T05:37:45.562Z,34.20
2019-03-02T05:40:14.570Z,34.57
2019-03-02T05:42:48.675Z,36.30
2019-03-02T05:45:40.934Z,35.40
2019-03-02T05:48:09.014Z,34.23
2019-03-02T05:50:37.491Z,34.07
2019-03-02T05:53:06.024Z,35.47
2019-03-02T05:55:34.488Z,36.33
2019-03-02T05:58:03.102Z,35.67
2019-03-02T06:00:33.849Z,35.67
2019-03-02T06:03:01.752Z,36.10
2019-03-02T06:05:30.320Z,36.23
2019-03-02T06:08:00.492Z,35.70
2019-03-02T06:10:28.966Z,35.37
2019-03-02T06:12:57.507Z,36.33
2019-03-02T06:15:26.070Z,35.00
2019-03-02T06:17:54.514Z,34.73
2019-03-02T06:20:22.985Z,35.27
2019-03-02T06:22:52.381Z,36.13
2019-03-02T06:25:23.171Z,35.50
2019-03-02T06:27:51.784Z,34.87
2019-03-02T06:30:24.337Z,34.53
2019-03-02T06:32:52.964Z,34.60
2019-03-02T06:35:21.583Z,36.30
2019-03-02T06:37:52.971Z,34.30
2019-03-02T06:40:23.536Z,35.77
2019-03-02T06:42:50.770Z,36.13
2019-03-02T06:45:20.443Z,34.30
2019-03-02T06:47:48.899Z,32.67
2019-03-02T06:50:18.190Z,32.67
2019-03-02T06:52:46.757Z,30.60
2019-03-02T06:55:16.184Z,30.97
2019-03-02T06:57:46.115Z,30.70
2019-03-02T07:00:19.525Z,30.67
2019-03-02T07:02:48.058Z,30.63
2019-03-02T07:05:16.596Z,38.93
2019-03-02T07:07:45.069Z,31.60
2019-03-02T07:10:17.712Z,30.10
2019-03-02T07:12:46.983Z,29.57
2019-03-02T07:15:15.754Z,29.23
2019-03-02T07:17:57.891Z,28.03
2019-03-02T07:20:34.063Z,28.63
2019-03-02T07:23:02.534Z,26.43
2019-03-02T07:25:31.051Z,26.90
2019-03-02T07:28:01.938Z,27.07
2019-03-02T07:30:29.728Z,25.57
2019-03-02T07:32:58.260Z,26.47
2019-03-02T07:35:26.741Z,27.33
2019-03-02T07:37:55.279Z,25.33
2019-03-02T07:40:23.735Z,25.90
2019-03-02T07:42:52.240Z,24.70
2019-03-02T07:45:20.761Z,25.93
2019-03-02T07:47:49.220Z,26.07
2019-03-02T07:50:17.754Z,25.13
2019-03-02T07:52:49.667Z,26.00
2019-03-02T07:55:19.108Z,26.33
2019-03-02T07:57:49.973Z,26.70
2019-03-02T08:00:20.264Z,26.37
2019-03-02T08:02:48.796Z,27.57
2019-03-02T08:05:17.420Z,28.60
2019-03-02T08:07:46.337Z,26.93
2019-03-02T08:10:14.915Z,27.87
2019-03-02T08:12:43.420Z,27.13
2019-03-02T08:15:20.308Z,28.77
2019-03-02T08:17:49.198Z,28.67
2019-03-02T08:20:20.780Z,29.17
2019-03-02T08:22:49.324Z,28.33
2019-03-02T08:25:18.153Z,28.57
2019-03-02T08:27:46.633Z,29.23
2019-03-02T08:30:20.477Z,28.87
2019-03-02T08:32:48.996Z,28.70
2019-03-02T08:35:17.710Z,28.97
2019-03-02T08:37:46.197Z,28.30
2019-03-02T08:40:19.305Z,29.67
2019-03-02T08:42:46.196Z,28.37
2019-03-02T08:45:18.651Z,28.50
2019-03-02T08:47:47.120Z,29.13
2019-03-02T08:50:17.534Z,28.60
2019-03-02T08:52:47.167Z,28.80
2019-03-02T08:55:25.060Z,29.47
2019-03-02T08:57:53.888Z,28.60
2019-03-02T09:00:27.520Z,27.80
2019-03-02T09:02:59.111Z,27.50
2019-03-02T09:05:42.971Z,27.50
2019-03-02T09:07:56.446Z,26.50
2019-03-02T09:10:24.962Z,25.23
2019-03-02T09:12:58.646Z,23.37
2019-03-02T09:15:31.737Z,25.00
2019-03-02T09:18:00.202Z,24.80
2019-03-02T09:20:32.239Z,23.57
2019-03-02T09:23:00.655Z,22.47
2019-03-02T09:25:30.047Z,21.67
2019-03-02T09:27:58.616Z,21.77
2019-03-02T09:30:27.635Z,22.13
2019-03-02T09:32:56.700Z,21.83
2019-03-02T09:35:25.163Z,22.27
2019-03-02T09:37:53.687Z,20.73
2019-03-02T09:40:25.282Z,21.53
2019-03-02T09:42:53.871Z,20.90
2019-03-02T09:45:22.540Z,21.23
2019-03-02T09:47:52.252Z,21.47
2019-03-02T09:50:22.275Z,19.77
2019-03-02T09:52:50.844Z,21.07
2019-03-02T09:55:20.245Z,20.67
2019-03-02T09:57:49.213Z,20.03
2019-03-02T10:00:25.903Z,20.97
2019-03-02T10:02:54.794Z,18.37
2019-03-02T10:05:23.309Z,20.63
2019-03-02T10:07:51.839Z,18.90
2019-03-02T10:10:20.446Z,18.70
2019-03-02T10:12:51.539Z,17.23
2019-03-02T10:15:21.808Z,18.83
2019-03-02T10:17:50.653Z,18.07
2019-03-02T10:20:19.159Z,19.17
2019-03-02T10:22:47.620Z,17.50
2019-03-02T10:25:16.848Z,16.80
2019-03-02T10:27:46.970Z,16.90
2019-03-02T10:30:22.023Z,16.93
2019-03-02T10:32:52.020Z,16.80
2019-03-02T10:35:20.919Z,17.43
2019-03-02T10:37:49.547Z,17.53
2019-03-02T10:40:19.212Z,17.47
2019-03-02T10:42:47.751Z,17.37
2019-03-02T10:45:20.282Z,17.57
2019-03-02T10:47:48.739Z,18.27
2019-03-02T10:50:23.397Z,18.77
2019-03-02T10:52:53.379Z,17.37
2019-03-02T10:55:22.829Z,20.40
2019-03-02T10:57:51.374Z,19.27
2019-03-02T11:00:29.723Z,20.47
2019-03-02T11:03:04.876Z,20.43
2019-03-02T11:05:52.844Z,20.40
2019-03-02T11:08:34.840Z,23.73
2019-03-02T11:11:10.666Z,23.60
2019-03-02T11:13:55.299Z,25.00
2019-03-02T11:16:24.393Z,25.97
2019-03-02T11:18:57.350Z,26.60
2019-03-02T11:21:39.564Z,25.60
2019-03-02T11:24:21.957Z,27.93
2019-03-02T11:27:09.644Z,26.80
2019-03-02T11:29:50.900Z,25.90
2019-03-02T11:32:33.218Z,26.23
2019-03-02T11:35:03.310Z,26.70
2019-03-02T11:37:45.554Z,28.10
2019-03-02T11:40:15.661Z,26.33
2019-03-02T11:42:45.829Z,25.90
2019-03-02T11:45:32.517Z,26.30
2019-03-02T11:48:13.755Z,25.37
2019-03-02T11:50:58.815Z,26.60
2019-03-02T11:53:28.919Z,26.33
2019-03-02T11:56:06.570Z,27.60
2019-03-02T11:58:51.970Z,25.87
2019-03-02T12:01:34.253Z,27.67
2019-03-02T12:04:15.098Z,27.33
2019-03-02T12:06:59.788Z,27.63
2019-03-02T12:09:42.577Z,26.23
2019-03-02T12:12:29.230Z,28.77
2019-03-02T12:15:16.036Z,28.23
2019-03-02T12:18:04.587Z,27.90
2019-03-02T12:20:37.223Z,27.30
2019-03-02T12:23:13.340Z,28.13
2019-03-02T12:26:34.400Z,26.90
2019-03-02T12:29:14.632Z,27.17
2019-03-02T12:31:48.089Z,28.03
2019-03-02T12:34:24.026Z,28.33
2019-03-02T12:36:54.526Z,27.07
2019-03-02T12:39:40.954Z,28.70
2019-03-02T12:42:26.710Z,26.47
2019-03-02T12:45:04.380Z,28.07
2019-03-02T12:47:49.648Z,27.80
2019-03-02T12:50:23.138Z,28.07
2019-03-02T12:52:54.048Z,27.93
2019-03-02T12:55:33.507Z,29.40
2019-03-02T12:58:07.051Z,27.80
2019-03-02T13:00:37.244Z,27.80
2019-03-02T13:03:10.097Z,26.67
2019-03-02T13:05:49.648Z,29.47
2019-03-02T13:08:35.735Z,28.00
2019-03-02T13:11:25.756Z,29.07
2019-03-02T13:13:56.681Z,29.60
2019-03-02T13:16:31.845Z,29.30
2019-03-02T13:19:04.957Z,29.10
2019-03-02T13:21:37.908Z,28.07
2019-03-02T13:24:26.285Z,29.60
2019-03-02T13:27:05.615Z,30.23
2019-03-02T13:29:49.294Z,29.77
2019-03-02T13:32:20.998Z,30.23
2019-03-02T13:34:51.233Z,30.13
2019-03-02T13:37:21.394Z,30.33
2019-03-02T13:39:57.354Z,30.97
2019-03-02T13:42:36.489Z,29.77
2019-03-02T13:45:14.930Z,29.33
2019-03-02T13:48:00.211Z,28.50
2019-03-02T13:50:36.128Z,28.67
2019-03-02T13:53:08.943Z,29.20
2019-03-02T13:55:41.984Z,28.03
2019-03-02T13:58:21.294Z,30.07
2019-03-02T14:00:51.538Z,28.80
2019-03-02T14:03:30.345Z,28.23
2019-03-02T14:06:06.610Z,29.20
2019-03-02T14:08:39.838Z,28.63
2019-03-02T14:11:17.764Z,30.60
2019-03-02T14:13:53.692Z,29.97
2019-03-02T14:16:32.217Z,28.87
2019-03-02T14:19:10.376Z,30.07
2019-03-02T14:21:40.487Z,28.80
2019-03-02T14:24:15.437Z,29.80
2019-03-02T14:26:45.419Z,29.40
2019-03-02T14:29:27.680Z,28.73
2019-03-02T14:32:00.798Z,26.97
2019-03-02T14:34:40.244Z,27.60
2019-03-02T14:37:11.181Z,27.87
2019-03-02T14:39:49.650Z,28.53
2019-03-02T14:42:19.821Z,26.90
2019-03-02T14:45:09.625Z,27.50
2019-03-02T14:47:56.287Z,27.43
2019-03-02T14:50:29.086Z,28.60
2019-03-02T14:53:09.513Z,28.97
2019-03-02T14:55:36.872Z,29.40
2019-03-02T14:58:12.931Z,30.37
2019-03-02T15:01:02.771Z,29.67
2019-03-02T15:03:35.813Z,28.30
2019-03-02T15:06:10.400Z,30.83
2019-03-02T15:08:38.326Z,29.07
2019-03-02T15:11:08.443Z,28.23
2019-03-02T15:13:47.620Z,29.83
2019-03-02T15:16:26.621Z,30.73
2019-03-02T15:19:12.978Z,30.90
2019-03-02T15:21:49.092Z,31.03
2019-03-02T15:24:27.965Z,30.33
2019-03-02T15:27:16.819Z,30.67
2019-03-02T15:30:00.524Z,30.20
2019-03-02T15:32:46.859Z,30.77
2019-03-02T15:35:17.016Z,29.20
2019-03-02T15:37:49.869Z,29.37
2019-03-02T15:40:36.599Z,28.43
2019-03-02T15:43:22.000Z,27.73
2019-03-02T15:45:58.831Z,28.50
2019-03-02T15:48:45.375Z,28.30
2019-03-02T15:51:18.682Z,28.67
2019-03-02T15:53:52.899Z,27.20
2019-03-02T15:56:26.076Z,27.23
2019-03-02T15:58:59.641Z,26.17
2019-03-02T16:01:34.252Z,26.63
2019-03-02T16:04:07.273Z,26.47
2019-03-02T16:06:52.543Z,26.97
2019-03-02T16:09:31.620Z,25.27
2019-03-02T16:12:11.025Z,26.70
2019-03-02T16:14:57.567Z,26.57
2019-03-02T16:17:36.199Z,27.13
2019-03-02T16:20:07.514Z,28.33
2019-03-02T16:22:37.707Z,28.20
2019-03-02T16:25:18.105Z,27.70
2019-03-02T16:27:48.204Z,29.30
2019-03-02T16:30:18.304Z,28.67
2019-03-02T16:33:00.458Z,28.80
2019-03-02T16:35:42.635Z,30.17
2019-03-02T16:38:21.606Z,27.80
2019-03-02T16:40:58.239Z,28.93
2019-03-02T16:43:29.377Z,27.80
2019-03-02T16:46:08.080Z,28.50
2019-03-02T16:48:41.323Z,29.67
2019-03-02T16:51:11.713Z,28.63
2019-03-02T16:53:58.674Z,33.53
2019-03-02T16:56:29.080Z,34.10
2019-03-02T16:59:15.704Z,31.93
2019-03-02T17:01:48.260Z,30.97
2019-03-02T17:04:18.867Z,33.70
2019-03-02T17:06:52.695Z,33.17
2019-03-02T17:09:35.609Z,33.47
2019-03-02T17:12:08.361Z,31.27
2019-03-02T17:14:41.934Z,33.00
2019-03-02T17:17:19.525Z,31.63
2019-03-02T17:19:49.778Z,30.33
2019-03-02T17:22:20.098Z,31.50
2019-03-02T17:24:53.120Z,32.10
2019-03-02T17:27:43.134Z,31.93
2019-03-02T17:30:21.309Z,32.73
2019-03-02T17:32:59.947Z,32.83
2019-03-02T17:35:32.678Z,34.00
2019-03-02T17:38:02.344Z,32.90
2019-03-02T17:40:32.541Z,33.07
2019-03-02T17:43:03.772Z,34.20
2019-03-02T17:45:37.622Z,34.83
2019-03-02T17:48:26.232Z,33.03
2019-03-02T17:50:58.516Z,33.97
2019-03-02T17:53:28.536Z,34.60
2019-03-02T17:56:13.738Z,35.80
2019-03-02T17:58:49.937Z,33.90
2019-03-02T18:01:36.555Z,34.67
2019-03-02T18:04:12.780Z,36.93
2019-03-02T18:06:43.070Z,36.77
2019-03-02T18:09:13.241Z,36.80
2019-03-02T18:11:46.469Z,36.03
2019-03-02T18:14:20.137Z,39.03
2019-03-02T18:17:06.549Z,37.67
2019-03-02T18:19:35.007Z,35.77
2019-03-02T18:22:06.525Z,36.90
2019-03-02T18:24:35.412Z,35.60
2019-03-02T18:27:04.299Z,34.30
2019-03-02T18:29:32.727Z,33.73
2019-03-02T18:32:02.256Z,33.60
2019-03-02T18:34:30.938Z,35.17
2019-03-02T18:36:59.528Z,35.10
2019-03-02T18:39:28.005Z,35.07
2019-03-02T18:41:58.055Z,36.37
2019-03-02T18:44:27.843Z,36.00
2019-03-02T18:46:56.639Z,37.07
2019-03-02T18:49:26.794Z,38.20
2019-03-02T18:52:02.832Z,38.60
2019-03-02T18:54:31.347Z,36.33
2019-03-02T18:56:59.793Z,38.87
2019-03-02T18:59:28.213Z,40.17
2019-03-02T19:01:56.618Z,39.20
2019-03-02T19:04:27.234Z,41.00
2019-03-02T19:06:59.177Z,40.63
2019-03-02T19:09:32.076Z,40.23
2019-03-02T19:11:56.524Z,41.67
2019-03-02T19:14:24.979Z,37.93
2019-03-02T19:16:53.523Z,41.30
2019-03-02T19:19:22.110Z,41.10
2019-03-02T19:21:50.579Z,39.67
2019-03-02T19:24:19.104Z,38.93
2019-03-02T19:26:47.578Z,37.67
2019-03-02T19:29:16.027Z,37.47
2019-03-02T19:31:44.466Z,36.77
2019-03-02T19:34:13.010Z,35.17
2019-03-02T19:36:41.469Z,37.13
2019-03-02T19:39:18.566Z,37.63
2019-03-02T19:41:47.127Z,37.27
2019-03-02T19:44:15.661Z,36.50
2019-03-02T19:46:44.185Z,35.10
2019-03-02T19:49:12.690Z,35.50
2019-03-02T19:51:41.154Z,33.70
2019-03-02T19:54:09.626Z,33.87
2019-03-02T19:56:38.068Z,36.30
2019-03-02T19:59:06.529Z,36.57
2019-03-02T20:01:35.234Z,34.53
2019-03-02T20:04:03.899Z,36.83
2019-03-02T20:06:32.435Z,38.63
2019-03-02T20:09:00.883Z,36.40
2019-03-02T20:11:29.349Z,37.53
2019-03-02T20:13:57.886Z,36.93
2019-03-02T20:16:27.585Z,42.87
2019-03-02T20:18:58.289Z,40.17
2019-03-02T20:21:26.330Z,34.23
2019-03-02T20:23:54.788Z,32.53
2019-03-02T20:26:23.250Z,31.00
2019-03-02T20:28:51.708Z,31.93
2019-03-02T20:31:20.262Z,29.63
2019-03-02T20:33:48.877Z,31.40
2019-03-02T20:36:17.387Z,28.87
2019-03-02T20:38:45.885Z,27.37
2019-03-02T20:41:14.440Z,27.87
2019-03-02T20:43:42.898Z,28.47
2019-03-02T20:46:11.460Z,26.83
2019-03-02T20:48:40.015Z,26.70
2019-03-02T20:51:08.472Z,26.70
2019-03-02T20:53:37.005Z,27.57
2019-03-02T20:56:05.536Z,23.87
2019-03-02T20:58:34.014Z,26.13
2019-03-02T21:01:02.481Z,26.40
2019-03-02T21:03:31.007Z,24.67
2019-03-02T21:05:59.686Z,24.93
2019-03-02T21:08:28.166Z,25.83
2019-03-02T21:10:56.696Z,23.67
2019-03-02T21:13:25.561Z,23.80
2019-03-02T21:15:54.618Z,23.50
2019-03-02T21:18:23.062Z,22.93
2019-03-02T21:20:51.571Z,22.83
2019-03-02T21:23:20.018Z,21.63
2019-03-02T21:25:48.517Z,20.80
2019-03-02T21:28:17.049Z,21.80
2019-03-02T21:30:45.601Z,20.50
2019-03-02T21:33:14.112Z,18.20
2019-03-02T21:35:42.559Z,19.73
2019-03-02T21:38:11.044Z,19.10
2019-03-02T21:40:39.505Z,19.87
2019-03-02T21:43:07.971Z,20.27
2019-03-02T21:45:36.578Z,20.43
2019-03-02T21:48:05.226Z,18.30
2019-03-02T21:50:36.276Z,17.50
2019-03-02T21:53:05.110Z,15.03
2019-03-02T21:55:33.573Z,13.87
2019-03-02T21:58:02.113Z,8.10
2019-03-02T22:00:30.859Z,7.20
2019-03-02T22:02:59.377Z,6.67
2019-03-02T22:05:27.918Z,6.37
2019-03-02T22:07:56.426Z,5.53
2019-03-02T22:10:52.361Z,5.53
2019-03-02T22:13:20.829Z,5.97
2019-03-02T22:15:49.295Z,5.77
2019-03-02T22:18:17.764Z,5.80
2019-03-02T22:20:46.810Z,5.70
2019-03-02T22:23:15.243Z,5.63
2019-03-02T22:25:43.714Z,5.50
2019-03-02T22:28:12.311Z,5.30
2019-03-02T22:30:40.832Z,4.67
2019-03-02T22:33:09.312Z,5.27
2019-03-02T22:35:37.762Z,4.73
2019-03-02T22:38:06.231Z,4.87
2019-03-02T22:40:34.680Z,5.10
2019-03-02T22:43:03.252Z,5.70
2019-03-02T22:45:31.705Z,4.87
2019-03-02T22:48:00.235Z,5.67
2019-03-02T22:50:31.862Z,5.67
2019-03-02T22:53:00.458Z,5.17
2019-03-02T22:55:28.977Z,5.63
2019-03-02T22:57:57.836Z,5.60
2019-03-02T23:00:29.816Z,5.70
2019-03-02T23:02:57.185Z,5.90
2019-03-02T23:05:26.046Z,6.10
2019-03-02T23:07:54.495Z,5.97
2019-03-02T23:10:23.025Z,6.00
2019-03-02T23:12:51.474Z,6.20
2019-03-02T23:15:23.864Z,6.57
2019-03-02T23:17:52.314Z,6.23
2019-03-02T23:20:20.848Z,5.80
2019-03-02T23:22:49.292Z,6.17
2019-03-02T23:25:17.753Z,6.20
2019-03-02T23:27:46.221Z,6.37
2019-03-02T23:30:21.966Z,6.20
2019-03-02T23:32:50.431Z,6.53
2019-03-02T23:35:19.019Z,6.00
2019-03-02T23:37:47.505Z,6.17
2019-03-02T23:40:21.080Z,6.17
2019-03-02T23:42:49.705Z,6.47
2019-03-02T23:45:19.062Z,5.40
2019-03-02T23:47:47.567Z,5.90
2019-03-02T23:50:16.272Z,5.67
2019-03-02T23:52:44.798Z,6.30
2019-03-02T23:55:14.557Z,6.77
2019-03-02T23:57:43.085Z,6.60
